Time;durP1;ratioP1;P1;durP2;ratioP2;P2;SDS_P1;SDS_P2;PMS_P1;PMS_P2;Temp;Humidity;BMP_temperature;BMP_pressure;BME280_temperature;BME280_humidity;BME280_pressure;Samples;Min_cycle;Max_cycle;Signal;HPM_P1;HPM_P2
2024/03/14 00:01:27;;;;;;;7.82;4.05;;;;;;;-144.05;77.03;56984.78;5017667;28;20034;-81
2024/03/14 00:03:55;;;;;;;8.43;4.47;;;;;;;-144.05;77.13;57003.88;5016803;28;20024;-80
2024/03/14 00:06:21;;;;;;;7.47;4.00;;;8.00;99.90;;;-144.05;77.21;57001.75;5018854;28;20521;-80
2024/03/14 00:08:47;;;;;;;8.00;3.83;;;;;;;-144.05;76.96;56997.50;5034877;28;20034;-81
2024/03/14 00:11:13;;;;;;;5.85;4.15;;;7.50;99.90;;;-144.05;76.83;57001.75;5018050;28;20064;-80
2024/03/14 00:13:39;;;;;;;7.47;4.72;;;8.50;99.90;;;-144.05;77.15;57010.25;5017761;28;20452;-80
2024/03/14 00:16:05;;;;;;;5.78;3.92;;;;;;;-144.05;77.25;56986.91;5019577;28;20054;-80
2024/03/14 00:18:31;;;;;;;10.05;4.43;;;7.70;99.90;;;-144.05;77.51;56991.13;5018148;28;20030;-79
2024/03/14 00:20:59;;;;;;;8.55;4.53;;;7.80;99.90;;;-144.05;77.37;56995.38;5018774;28;20052;-81
2024/03/14 00:23:25;;;;;;;7.65;4.38;;;7.70;99.90;;;-144.05;77.45;57006.00;5020190;28;20365;-81
2024/03/14 00:25:51;;;;;;;6.25;4.32;;;11.80;99.90;;;-144.05;77.63;57008.13;5018388;28;20026;-81
2024/03/14 00:28:20;;;;;;;7.72;4.10;;;;;;;-144.05;77.13;56995.38;5019382;28;20088;-80
2024/03/14 00:30:46;;;;;;;5.72;3.92;;;7.90;99.90;;;-144.05;77.39;56991.13;5019302;28;20021;-81
2024/03/14 00:33:12;;;;;;;7.22;4.00;;;;;;;-144.05;77.14;56984.78;5034820;28;20084;-82
2024/03/14 00:35:39;;;;;;;8.00;4.93;;;;;;;-144.05;77.28;56980.53;5019757;28;20139;-81
2024/03/14 00:38:05;;;;;;;7.43;4.35;;;7.70;99.90;;;-144.05;77.61;56980.53;5020631;28;20026;-82
2024/03/14 00:40:31;;;;;;;7.13;5.18;;;7.80;99.90;;;-144.05;77.53;56972.03;5021681;28;20068;-81
2024/03/14 00:42:57;;;;;;;7.28;4.63;;;14.60;99.90;;;-144.05;77.35;56991.13;5024084;28;20022;-82
2024/03/14 00:45:24;;;;;;;11.10;5.55;;;;;;;-144.05;77.32;56974.16;5018341;28;20058;-81
2024/03/14 00:47:50;;;;;;;8.95;4.38;;;7.40;99.90;;;-144.05;77.71;56974.16;5027122;28;20051;-82
2024/03/14 00:50:15;;;;;;;8.80;5.03;;;14.50;99.90;;;-144.05;77.57;57010.25;5027799;28;20029;-81
2024/03/14 00:52:41;;;;;;;9.88;4.40;;;8.30;99.90;;;-144.05;77.41;56982.66;5020324;28;20091;-80
2024/03/14 00:55:09;;;;;;;10.98;5.97;;;7.80;99.90;;;-144.05;77.64;57014.50;5016562;28;20439;-80
2024/03/14 00:57:35;;;;;;;11.60;5.30;;;7.40;99.90;;;-144.05;77.96;57018.75;5013377;28;20022;-79
2024/03/14 01:00:11;;;;;;;8.63;5.38;;;8.80;99.90;;;-144.05;77.59;57003.88;5014387;28;20022;-80
2024/03/14 01:02:37;;;;;;;8.38;5.38;;;8.50;99.90;;;-144.05;77.13;56980.53;5013402;28;20583;-80
2024/03/14 01:05:05;;;;;;;7.93;4.93;;;8.90;99.90;;;-144.05;77.90;56978.41;5015632;28;20038;-79
2024/03/14 01:07:32;;;;;;;9.73;5.78;;;;;;;-144.05;77.90;56980.53;5014407;28;20034;-81
2024/03/14 01:09:58;;;;;;;10.45;5.43;;;;;;;-144.05;78.10;57014.50;5014100;28;20121;-81
2024/03/14 01:12:24;;;;;;;7.45;4.97;;;7.90;99.90;;;-144.05;77.34;56984.78;5015561;28;20434;-81
2024/03/14 01:14:50;;;;;;;7.45;5.28;;;;;;;-144.05;77.66;57003.88;5015871;28;20136;-80
2024/03/14 01:17:16;;;;;;;9.20;5.50;;;8.20;99.90;;;-144.05;77.90;56980.53;5015693;28;20029;-80
2024/03/14 01:19:42;;;;;;;8.43;4.75;;;14.60;99.90;;;-144.05;78.16;57006.00;5016486;28;20091;-80
2024/03/14 01:22:08;;;;;;;10.65;6.65;;;14.60;99.90;;;-144.05;77.94;56976.28;5016580;28;20054;-80
2024/03/14 01:24:37;;;;;;;9.15;5.35;;;8.00;99.90;;;-144.05;77.86;56963.53;5016314;28;20072;-81
2024/03/14 01:27:03;;;;;;;10.73;5.35;;;7.90;99.90;;;-144.05;77.64;56986.91;5016679;28;20096;-80
2024/03/14 01:29:29;;;;;;;9.68;6.25;;;8.30;99.90;;;-144.05;78.20;56999.63;5015554;28;20383;-80
2024/03/14 01:31:55;;;;;;;9.40;5.40;;;8.00;99.90;;;-144.05;77.61;56995.38;5026531;28;20018;-80
2024/03/14 01:34:22;;;;;;;8.27;5.47;;;;;;;-144.05;77.22;57001.75;5040414;28;20038;-82
2024/03/14 01:36:48;;;;;;;8.38;5.22;;;;;;;-144.05;76.77;57001.75;5028326;28;20028;-81
2024/03/14 01:39:15;;;;;;;7.57;4.65;;;;;;;-144.05;76.81;56978.41;5019727;28;20041;-81
2024/03/14 01:41:42;;;;;;;9.68;5.93;;;7.60;99.90;;;-144.05;76.59;57003.88;5018980;28;20057;-81
2024/03/14 01:44:08;;;;;;;7.38;5.75;;;;;;;-144.05;76.88;56986.91;5022337;28;20029;-81
2024/03/14 01:46:35;;;;;;;10.05;5.38;;;8.50;99.90;;;-144.05;77.24;56993.25;5020918;28;20029;-80
2024/03/14 01:49:01;;;;;;;10.38;5.68;;;14.30;99.90;;;-144.05;76.92;56984.78;5020584;28;20101;-80
2024/03/14 01:51:28;;;;;;;10.77;6.13;;;8.50;99.90;;;-144.05;76.86;56993.25;5021935;28;20045;-80
2024/03/14 01:53:55;;;;;;;7.47;5.25;;;11.30;99.90;;;-144.05;76.94;56980.53;5021746;28;20037;-81
2024/03/14 01:56:21;;;;;;;9.75;5.85;;;11.30;99.90;;;-144.05;76.40;56969.91;5022605;28;20084;-80
2024/03/14 01:58:53;;;;;;;10.57;5.72;;;8.30;99.90;;;-144.05;76.01;56978.41;5024402;28;20426;-81
2024/03/14 02:01:23;;;;;;;10.52;5.55;;;11.40;99.90;;;-144.05;76.25;57003.88;5022070;28;20032;-80
2024/03/14 02:04:17;;;;;;;10.18;5.75;;;11.30;99.90;;;-144.05;75.80;56984.78;5021400;28;20024;-80
2024/03/14 02:07:15;;;;;;;9.15;5.20;;;8.60;99.90;;;-144.05;75.81;56980.53;5019896;28;20100;-79
2024/03/14 02:09:43;;;;;;;7.25;5.43;;;;;;;-144.05;75.87;56995.38;5033605;28;20080;-80
2024/03/14 02:12:10;;;;;;;8.27;5.68;;;8.50;99.90;;;-144.05;76.15;57006.00;5019543;28;20080;-79
2024/03/14 02:14:36;;;;;;;9.65;5.40;;;8.60;99.90;;;-144.05;75.95;56984.78;5019445;28;20061;-81
2024/03/14 02:17:04;;;;;;;12.77;6.35;;;7.60;99.90;;;-144.05;76.05;56989.00;5020054;28;20061;-80
2024/03/14 02:19:31;;;;;;;12.27;5.75;;;;;;;-144.05;76.10;56991.13;5020195;28;20026;-80
2024/03/14 02:22:00;;;;;;;15.30;5.93;;;8.80;99.90;;;-144.05;75.95;57001.75;5020457;28;20030;-80
2024/03/14 02:24:27;;;;;;;8.57;5.60;;;;;;;-144.05;75.95;56974.16;5018264;28;20366;-80
2024/03/14 02:26:55;;;;;;;10.57;6.50;;;;;;;-144.05;75.80;57008.13;5013617;28;20025;-79
2024/03/14 02:29:21;;;;;;;9.82;6.10;;;7.70;99.90;;;-144.05;75.83;56999.63;5017887;28;20496;-80
2024/03/14 02:31:51;;;;;;;10.20;5.55;;;;;;;-144.05;75.79;56989.00;5019879;28;20041;-80
2024/03/14 02:34:19;;;;;;;12.50;6.32;;;7.90;99.90;;;-144.05;76.03;56982.66;5019189;28;20180;-79
2024/03/14 02:36:45;;;;;;;10.52;6.60;;;9.10;99.90;;;-144.05;76.46;56999.63;5019733;28;20033;-80
2024/03/14 02:39:14;;;;;;;12.32;6.47;;;;;;;-144.05;76.50;57014.50;5020058;28;20018;-80
2024/03/14 02:41:40;;;;;;;10.27;6.13;;;8.10;99.90;;;-144.05;76.09;57003.88;5017664;28;20080;-80
2024/03/14 02:44:18;;;;;;;9.88;6.75;;;7.80;99.90;;;-144.05;75.96;57012.38;5019748;28;20032;-80
2024/03/14 02:46:51;;;;;;;8.18;5.80;;;14.50;99.90;;;-144.05;76.10;56991.13;5032663;28;20033;-80
2024/03/14 02:49:23;;;;;;;9.98;6.32;;;;;;;-144.05;76.28;57006.00;5017566;28;20391;-80
2024/03/14 02:51:50;;;;;;;7.78;5.63;;;8.20;99.90;;;-144.05;76.10;57035.75;5034586;28;20034;-80
2024/03/14 02:54:16;;;;;;;8.40;6.18;;;;;;;-144.05;75.88;57014.50;5019130;28;20396;-80
2024/03/14 02:56:49;;;;;;;9.65;6.72;;;11.10;99.90;;;-144.05;76.19;56974.16;5019380;28;20116;-80
2024/03/14 02:59:22;;;;;;;10.90;6.53;;;14.70;99.90;;;-144.05;75.81;57001.75;5020998;28;20032;-81
2024/03/14 03:01:49;;;;;;;12.77;6.65;;;7.90;99.90;;;-144.05;75.46;56995.38;5020722;28;20037;-81
2024/03/14 03:04:15;;;;;;;12.45;6.28;;;8.00;99.90;;;-144.05;75.87;57001.75;5034726;28;20053;-80
2024/03/14 03:06:53;;;;;;;12.70;7.38;;;7.30;99.90;;;-144.05;75.70;57001.75;5037308;28;20038;-81
2024/03/14 03:09:21;;;;;;;9.25;5.85;;;;;;;-144.05;75.59;56989.00;5026595;28;20030;-82
2024/03/14 03:11:47;;;;;;;12.73;6.05;;;;;;;-144.05;75.43;56986.91;5022659;28;20053;-82
2024/03/14 03:14:14;;;;;;;9.43;6.30;;;;;;;-144.05;75.83;56993.25;5022257;28;20034;-82
2024/03/14 03:16:40;;;;;;;10.35;6.70;;;;;;;-144.05;75.60;56978.41;5020883;28;20541;-81
2024/03/14 03:19:06;;;;;;;8.85;5.55;;;8.00;99.90;;;-144.05;75.61;57001.75;5022199;28;20025;-81
2024/03/14 03:21:32;;;;;;;10.02;5.78;;;7.80;99.90;;;-144.05;75.51;57008.13;5022317;28;20101;-81
2024/03/14 03:23:58;;;;;;;10.98;6.07;;;14.50;99.90;;;-144.05;75.97;57012.38;5020975;28;20029;-81
2024/03/14 03:26:25;;;;;;;9.23;5.55;;;14.30;99.90;;;-144.05;75.94;57016.63;5036193;28;20030;-81
2024/03/14 03:28:51;;;;;;;11.35;5.78;;;;;;;-144.05;75.48;56993.25;5021077;28;20026;-81
2024/03/14 03:31:17;;;;;;;9.80;4.82;;;14.00;99.90;;;-144.05;75.65;56991.13;5019859;28;20387;-80
2024/03/14 03:33:44;;;;;;;7.30;5.25;;;;;;;-144.05;75.94;57008.13;5019872;28;20036;-80
2024/03/14 03:36:09;;;;;;;8.70;5.35;;;8.00;99.90;;;-144.05;75.94;56984.78;5025904;28;20022;-79
2024/03/14 03:38:38;;;;;;;9.57;5.13;;;7.30;99.90;;;-144.05;76.29;56982.66;5019548;28;20048;-79
2024/03/14 03:41:06;;;;;;;8.07;4.95;;;14.40;99.90;;;-144.05;76.24;57008.13;5019164;28;20076;-80
2024/03/14 03:43:32;;;;;;;8.02;5.32;;;7.90;99.90;;;-144.05;76.00;56989.00;5015172;28;20671;-79
2024/03/14 03:45:58;;;;;;;5.78;4.40;;;;;;;-144.05;76.22;56993.25;5014434;28;20018;-80
2024/03/14 03:48:24;;;;;;;9.20;5.00;;;7.20;99.90;;;-144.05;76.64;56997.50;5013559;28;20025;-80
2024/03/14 03:50:52;;;;;;;9.40;5.50;;;;;;;-144.05;77.26;56989.00;5015473;28;20094;-79
2024/03/14 03:53:21;;;;;;;7.68;4.80;;;8.30;99.90;;;-144.05;76.64;56997.50;5015855;28;20034;-79
2024/03/14 03:55:47;;;;;;;6.85;5.18;;;8.10;99.90;;;-144.05;76.49;56974.16;5016628;28;20029;-79
2024/03/14 03:58:13;;;;;;;6.15;4.43;;;7.70;99.90;;;-144.05;76.21;57003.88;5016935;28;20084;-81
2024/03/14 04:00:46;;;;;;;9.02;5.15;;;14.10;99.90;;;-144.05;76.47;56993.25;5016979;28;20045;-81
2024/03/14 04:03:14;;;;;;;5.38;4.25;;;;;;;-144.05;76.54;56989.00;5017843;28;20025;-80
2024/03/14 04:05:45;;;;;;;7.50;5.13;;;;;;;-144.05;76.59;56986.91;5016162;28;20475;-78
2024/03/14 04:08:15;;;;;;;9.45;5.80;;;;;;;-144.05;76.89;56997.50;5018680;28;20018;-80
2024/03/14 04:10:41;;;;;;;8.50;4.57;;;10.50;99.90;;;-144.05;76.61;56995.38;5015870;28;20034;-80
2024/03/14 04:13:11;;;;;;;9.95;5.25;;;8.20;99.90;;;-144.05;76.82;56984.78;5018058;28;20034;-81
2024/03/14 04:15:38;;;;;;;5.97;4.40;;;;;;;-144.05;76.90;56963.53;5018809;28;20033;-81
2024/03/14 04:18:08;;;;;;;7.85;5.13;;;8.00;99.90;;;-144.05;77.46;56991.13;5018186;28;20034;-80
2024/03/14 04:20:37;;;;;;;10.32;5.10;;;7.60;99.90;;;-144.05;77.53;56991.13;5018425;28;20029;-80
2024/03/14 04:23:05;;;;;;;7.70;4.68;;;7.30;99.90;;;-144.05;77.64;56984.78;5020776;28;20475;-82
2024/03/14 04:25:32;;;;;;;8.98;4.93;;;10.20;99.90;;;-144.05;77.50;56997.50;5032092;28;20045;-82
2024/03/14 04:27:58;;;;;;;8.55;4.80;;;;;;;-144.05;79.01;57025.13;5026077;28;20022;-81
2024/03/14 04:30:25;;;;;;;6.32;4.45;;;7.40;99.90;;;-144.05;79.62;56989.00;5020196;28;20030;-81
2024/03/14 04:32:51;;;;;;;9.48;5.25;;;;;;;-144.05;79.05;56991.13;5035382;28;20055;-82
2024/03/14 04:35:20;;;;;;;9.23;5.07;;;;;;;-144.05;78.73;57016.63;5021070;28;20446;-82
2024/03/14 04:37:49;;;;;;;7.38;4.85;;;9.70;99.90;;;-144.05;78.35;56995.38;5020947;28;20036;-81
2024/03/14 04:40:21;;;;;;;8.75;4.50;;;7.30;99.90;;;-144.05;78.36;57014.50;5018095;28;20434;-82
2024/03/14 04:42:54;;;;;;;7.13;4.88;;;;;;;-144.05;78.55;57008.13;5016063;28;20483;-79
2024/03/14 04:45:24;;;;;;;7.93;4.25;;;;;;;-144.05;78.40;57031.50;5012850;28;20061;-80
2024/03/14 04:47:51;;;;;;;11.10;5.15;;;;;;;-144.05;77.90;57016.63;5024531;28;20030;-80
2024/03/14 04:50:21;;;;;;;6.38;5.13;;;10.20;99.90;;;-144.05;78.14;56980.53;5023829;28;20045;-80
2024/03/14 04:52:52;;;;;;;10.48;6.00;;;;;;;-144.05;78.71;57014.50;5015438;28;20511;-82
2024/03/14 04:55:20;;;;;;;7.63;4.90;;;;;;;-144.05;78.38;57027.25;5014868;28;20026;-80
2024/03/14 04:57:46;;;;;;;8.02;5.13;;;7.20;99.90;;;-144.05;78.55;56982.66;5016596;28;20034;-81
2024/03/14 05:02:45;;;;;;;10.90;6.03;;;14.50;99.90;;;-144.05;78.51;57003.88;5015294;28;20061;-82
2024/03/14 05:05:11;;;;;;;8.90;5.55;;;6.90;99.90;;;-144.05;78.93;56997.50;5015256;28;20022;-81
2024/03/14 05:07:37;;;;;;;12.80;5.80;;;;;;;-144.05;78.57;56976.28;5013136;28;20029;-81
2024/03/14 05:10:05;;;;;;;9.50;5.72;;;7.50;99.90;;;-144.05;78.70;56955.03;5014072;28;20097;-81
2024/03/14 05:12:32;;;;;;;8.73;5.78;;;;;;;-144.05;79.40;57003.88;5016240;28;20055;-80
2024/03/14 05:14:58;;;;;;;9.23;6.07;;;;;;;-144.05;79.47;56984.78;5016677;28;20030;-81
2024/03/14 05:17:24;;;;;;;7.90;6.00;;;7.20;99.90;;;-144.05;80.77;56986.91;5020636;28;20108;-80
2024/03/14 05:19:50;;;;;;;8.48;5.90;;;13.70;99.90;;;-144.05;79.92;57001.75;5020798;28;20107;-81
2024/03/14 05:22:19;;;;;;;9.48;6.07;;;6.80;99.90;;;-144.05;79.82;57023.00;5023088;28;20057;-80
2024/03/14 05:24:45;;;;;;;10.10;6.07;;;;;;;-144.05;79.79;57014.50;5022600;28;20105;-80
2024/03/14 05:27:12;;;;;;;10.48;5.93;;;7.50;99.90;;;-144.05;79.77;57018.75;5022794;28;20030;-81
2024/03/14 05:29:38;;;;;;;9.45;5.43;;;;;;;-144.05;80.74;57014.50;5034310;28;20025;-80
2024/03/14 05:32:21;;;;;;;9.95;6.68;;;14.50;99.90;;;-144.05;80.63;56993.25;5022101;28;20041;-79
2024/03/14 05:34:51;;;;;;;11.00;5.60;;;9.60;99.90;;;-144.05;80.02;56997.50;5019692;28;20037;-81
2024/03/14 05:37:17;;;;;;;10.30;6.05;;;;;;;-144.05;80.10;56993.25;5021664;28;20101;-81
2024/03/14 05:39:44;;;;;;;9.57;6.32;;;;;;;-144.05;80.35;56984.78;5019970;28;20495;-80
2024/03/14 05:42:12;;;;;;;9.48;6.32;;;9.00;99.90;;;-144.05;81.07;56952.91;5021653;28;20033;-81
2024/03/14 05:44:41;;;;;;;14.63;6.75;;;8.70;99.90;;;-144.05;81.54;56967.78;5021271;28;20022;-81
2024/03/14 05:47:11;;;;;;;10.98;6.55;;;11.10;99.90;;;-144.05;81.62;56997.50;5021768;28;20013;-82
2024/03/14 05:49:38;;;;;;;11.98;7.35;;;13.40;99.90;;;-144.05;82.79;57010.25;5020364;28;20113;-82
2024/03/14 05:52:05;;;;;;;12.13;6.95;;;7.60;99.90;;;-144.05;84.77;57001.75;5032380;28;20022;-83
2024/03/14 05:54:32;;;;;;;12.43;7.28;;;9.20;99.90;;;-144.05;85.09;56989.00;5019391;28;20085;-81
2024/03/14 05:56:58;;;;;;;12.30;8.00;;;;;;;-144.05;85.27;57003.88;5022568;28;20715;-83
2024/03/14 05:59:24;;;;;;;14.27;7.95;;;13.90;99.90;;;-144.05;85.49;57010.25;5021458;28;20056;-82
2024/03/14 06:01:53;;;;;;;11.25;7.40;;;;;;;-144.05;85.05;56999.63;5022646;28;20530;-82
2024/03/14 06:04:21;;;;;;;13.82;8.23;;;7.20;99.90;;;-144.05;85.84;56989.00;5020559;28;20483;-81
2024/03/14 06:06:48;;;;;;;11.95;7.68;;;11.00;99.90;;;-144.05;85.98;57003.88;5022907;28;20050;-82
2024/03/14 06:09:15;;;;;;;14.43;7.85;;;;;;;-144.05;85.97;57012.38;5023659;28;20033;-82
2024/03/14 06:11:45;;;;;;;15.45;7.40;;;9.20;99.90;;;-144.05;86.17;56982.66;5017094;28;20033;-82
2024/03/14 06:14:14;;;;;;;13.48;7.82;;;;;;;-144.05;85.90;57003.88;5017266;28;20470;-82
2024/03/14 06:16:40;;;;;;;11.68;7.47;;;8.20;99.90;;;-144.05;85.75;57033.63;5016059;28;20034;-79
2024/03/14 06:19:06;;;;;;;15.32;8.05;;;7.60;99.90;;;-144.05;86.06;56982.66;5020806;28;20113;-81
2024/03/14 06:21:39;;;;;;;13.95;8.60;;;;;;;-144.05;86.14;56984.78;5017964;28;20037;-81
2024/03/14 06:24:05;;;;;;;12.02;8.65;;;11.20;99.90;;;-144.05;86.33;56978.41;5024210;28;20040;-81
2024/03/14 06:26:31;;;;;;;12.77;7.75;;;7.70;99.90;;;-144.05;85.52;57006.00;5023300;28;20446;-81
2024/03/14 06:28:57;;;;;;;12.00;7.95;;;11.00;99.90;;;-144.05;86.09;56982.66;5019835;28;20625;-81
2024/03/14 06:31:24;;;;;;;11.82;8.65;;;7.70;99.90;;;-144.05;85.84;56999.63;5025165;28;20116;-81
2024/03/14 06:33:50;;;;;;;13.57;8.20;;;;;;;-144.05;85.66;57008.13;5034261;28;20026;-82
2024/03/14 06:36:18;;;;;;;14.23;7.93;;;10.90;99.90;;;-144.05;85.06;56997.50;5019164;28;20030;-80
2024/03/14 06:38:44;;;;;;;13.73;8.20;;;7.00;99.90;;;-144.05;83.74;57003.88;5019409;28;20140;-82
2024/03/14 06:41:11;;;;;;;13.70;8.35;;;13.80;99.90;;;-144.05;85.55;56986.91;5015633;28;20033;-82
2024/03/14 06:43:38;;;;;;;12.27;8.38;;;;;;;-144.05;86.04;56997.50;5019771;28;20034;-82
2024/03/14 06:46:05;;;;;;;12.32;7.47;;;7.00;99.90;;;-144.05;85.18;56995.38;5015387;28;20027;-82
2024/03/14 06:48:32;;;;;;;14.88;8.52;;;7.40;99.90;;;-144.05;85.06;57006.00;5018122;28;20026;-83
2024/03/14 06:50:58;;;;;;;12.85;8.05;;;;;;;-144.05;84.83;57025.13;5017780;28;20018;-81
2024/03/14 06:53:24;;;;;;;10.80;8.02;;;13.70;99.90;;;-144.05;84.85;57001.75;5030754;28;20080;-82
2024/03/14 06:55:51;;;;;;;13.52;8.57;;;;;;;-144.05;84.07;57010.25;5019808;28;20487;-83
2024/03/14 06:58:18;;;;;;;17.17;8.02;;;;;;;-144.05;83.55;56995.38;5019877;28;20113;-82
2024/03/14 07:00:44;;;;;;;13.40;8.18;;;;;;;-144.05;83.85;57010.25;5020613;28;20105;-80
2024/03/14 07:03:11;;;;;;;13.10;8.20;;;;;;;-144.05;83.34;56993.25;5022991;28;20491;-82
2024/03/14 07:05:37;;;;;;;15.25;8.57;;;;;;;-144.05;82.78;56967.78;5027387;28;20034;-81
2024/03/14 07:08:05;;;;;;;12.38;7.93;;;7.30;99.90;;;-144.05;82.59;56989.00;5037603;28;20029;-81
2024/03/14 07:10:31;;;;;;;12.02;8.15;;;;;;;-144.05;81.86;56997.50;5027613;28;20152;-81
2024/03/14 07:12:57;;;;;;;12.07;7.07;;;;;;;-144.05;80.54;56999.63;5021176;28;20026;-82
2024/03/14 07:15:23;;;;;;;10.23;7.22;;;;;;;-144.05;80.07;57003.88;5032687;28;20057;-83
2024/03/14 07:17:50;;;;;;;11.13;7.18;;;;;;;-144.05;79.32;56976.28;5027687;28;20034;-81
2024/03/14 07:20:24;;;;;;;13.00;8.23;;;7.70;99.90;;;-144.05;78.79;56969.91;5021877;28;20045;-81
2024/03/14 07:22:50;;;;;;;12.98;6.95;;;;;;;-144.05;78.90;56999.63;5022042;28;20029;-82
2024/03/14 07:25:17;;;;;;;9.55;7.13;;;;;;;-144.05;78.01;56984.78;5023163;28;20026;-82
2024/03/14 07:27:46;;;;;;;13.45;6.93;;;7.70;99.90;;;-144.05;78.70;56999.63;5021116;28;20074;-81
2024/03/14 07:30:15;;;;;;;10.57;6.75;;;14.10;99.90;;;-144.05;78.25;56989.00;5020551;28;20056;-81
2024/03/14 07:32:43;;;;;;;11.65;7.28;;;;;;;-144.05;77.14;57023.00;5020852;28;20044;-82
2024/03/14 07:35:10;;;;;;;11.45;7.40;;;7.90;99.90;;;-144.05;76.42;56989.00;5028527;28;20033;-81
2024/03/14 07:37:37;;;;;;;9.43;7.13;;;;;;;-144.05;76.12;56980.53;5027336;28;20067;-82
2024/03/14 07:40:05;;;;;;;10.48;6.60;;;14.00;99.90;;;-144.05;75.91;56978.41;5017702;28;20057;-80
2024/03/14 07:42:31;;;;;;;13.23;6.70;;;8.70;99.90;;;-144.05;75.40;56974.16;5020770;28;20037;-81
2024/03/14 07:44:58;;;;;;;8.45;6.40;;;14.20;99.90;;;-144.05;75.38;56984.78;5018075;28;20022;-82
2024/03/14 07:47:25;;;;;;;11.05;6.85;;;8.90;99.90;;;-144.05;74.26;56978.41;5018840;28;20426;-82
2024/03/14 07:49:55;;;;;;;9.23;6.43;;;14.20;99.90;;;-144.05;74.43;56984.78;5029016;28;20030;-81
2024/03/14 07:52:21;;;;;;;10.07;6.57;;;14.80;99.90;;;-144.05;74.80;56959.28;5029414;28;20030;-80
2024/03/14 07:54:47;;;;;;;9.35;6.63;;;14.50;99.90;;;-144.05;74.49;56982.66;5029053;28;20048;-81
2024/03/14 07:57:15;;;;;;;9.93;6.40;;;;;;;-144.05;74.40;56965.66;5028466;28;20036;-81
2024/03/14 07:59:42;;;;;;;8.13;5.90;;;8.00;99.90;;;-144.05;74.92;56980.53;5020531;28;20076;-81
2024/03/14 08:02:12;;;;;;;9.18;5.35;;;8.60;99.90;;;-144.05;74.93;56978.41;5017565;28;20037;-81
2024/03/14 08:04:39;;;;;;;9.18;5.75;;;14.70;99.90;;;-144.05;72.20;56974.16;5014539;28;20029;-81
2024/03/14 08:07:13;;;;;;;9.23;5.35;;;;;;;-144.05;70.69;56978.41;5018198;28;20255;-82
2024/03/14 08:09:45;;;;;;;7.38;5.20;;;12.70;99.90;;;-144.05;70.74;56974.16;5016613;28;20026;-82
2024/03/14 08:12:11;;;;;;;9.80;4.97;;;15.20;99.90;;;-144.05;70.69;57001.75;5019686;28;20491;-81
2024/03/14 08:14:37;;;;;;;10.15;5.60;;;9.30;99.90;;;-144.05;69.93;56978.41;5017606;28;20084;-80
2024/03/14 08:17:13;;;;;;;6.75;5.38;;;12.90;99.90;;;-144.05;69.77;56946.53;5034378;28;20030;-80
2024/03/14 08:19:40;;;;;;;7.45;4.57;;;13.80;99.90;;;-144.05;68.43;56989.00;5015198;28;20033;-80
2024/03/14 08:22:06;;;;;;;7.10;4.60;;;9.90;99.90;;;-144.05;68.54;56957.16;5021552;28;20049;-79
2024/03/14 08:24:52;;;;;;;6.85;5.05;;;15.00;99.90;;;-144.05;69.28;56976.28;5018393;28;20038;-80
2024/03/14 08:27:19;;;;;;;6.90;4.72;;;15.10;99.90;;;-144.05;68.52;56984.78;5016646;28;20085;-80
2024/03/14 08:29:47;;;;;;;8.02;4.60;;;11.10;99.90;;;-144.05;67.79;56976.28;5016540;28;20029;-80
2024/03/14 08:32:14;;;;;;;7.18;4.78;;;11.30;99.90;;;-144.05;67.79;56991.13;5017069;28;20045;-80
2024/03/14 08:34:40;;;;;;;8.15;4.80;;;11.20;99.90;;;-144.05;66.66;56993.25;5017558;28;20037;-79
2024/03/14 08:37:07;;;;;;;6.97;4.30;;;15.40;99.90;;;-144.05;65.28;56984.78;5016545;28;20566;-81
2024/03/14 08:39:33;;;;;;;9.38;4.00;;;15.20;99.90;;;-144.05;65.34;56991.13;5016687;28;20499;-82
2024/03/14 08:41:59;;;;;;;6.90;4.80;;;;;;;-144.05;65.79;56976.28;5017622;28;20037;-81
2024/03/14 08:44:28;;;;;;;6.00;4.40;;;;;;;-144.05;65.04;56959.28;5016974;28;20030;-80
2024/03/14 08:46:55;;;;;;;6.10;4.07;;;15.60;99.90;;;-144.05;65.21;56978.41;5031448;28;20034;-81
2024/03/14 08:49:22;;;;;;;6.57;4.15;;;15.90;99.90;;;-144.05;64.21;56967.78;5017089;28;20141;-81
2024/03/14 08:51:51;;;;;;;5.25;4.03;;;11.70;99.90;;;-144.05;62.92;56963.53;5032032;28;20120;-82
2024/03/14 08:56:49;;;;;;;5.75;4.60;;;15.90;99.90;;;-144.05;62.54;57003.88;5017667;28;20030;-79
2024/03/14 08:59:20;;;;;;;6.45;3.50;;;15.90;99.90;;;-144.05;63.17;56982.66;5016766;28;20026;-80
2024/03/14 09:01:46;;;;;;;7.47;4.13;;;;;;;-144.05;62.66;56978.41;5017451;28;20108;-79
2024/03/14 09:04:12;;;;;;;7.90;3.50;;;14.80;99.90;;;-144.05;62.43;56959.28;5017727;28;20022;-80
2024/03/14 09:06:42;;;;;;;7.40;3.88;;;16.20;99.90;;;-144.05;62.01;57003.88;5033383;28;20053;-80
2024/03/14 09:09:23;;;;;;;6.13;3.78;;;;;;;-144.05;62.09;56989.00;5018410;28;20111;-81
2024/03/14 09:11:55;;;;;;;5.38;3.90;;;15.70;99.90;;;-144.05;62.31;56993.25;5017666;28;20030;-79
2024/03/14 09:14:24;;;;;;;7.10;4.07;;;;;;;-144.05;62.82;56963.53;5016545;28;20037;-80
2024/03/14 09:16:50;;;;;;;6.53;3.80;;;12.10;99.90;;;-144.05;61.69;56978.41;5017373;28;20076;-80
2024/03/14 09:19:17;;;;;;;6.32;3.90;;;11.90;99.90;;;-144.05;62.87;56946.53;5014720;28;20037;-79
2024/03/14 09:21:43;;;;;;;7.60;4.05;;;;;;;-144.05;63.29;56984.78;5016834;28;20034;-80
2024/03/14 09:24:12;;;;;;;5.70;4.28;;;;;;;-144.05;62.94;56984.78;5016048;28;20084;-79
2024/03/14 09:26:38;;;;;;;6.45;3.90;;;11.70;99.90;;;-144.05;62.24;56969.91;5015826;28;20061;-82
2024/03/14 09:29:06;;;;;;;4.47;3.33;;;15.90;99.90;;;-144.05;61.75;56972.03;5018383;28;20101;-81
2024/03/14 09:31:32;;;;;;;4.78;3.60;;;11.50;99.90;;;-144.05;61.95;57003.88;5018106;28;20117;-79
2024/03/14 09:33:58;;;;;;;4.78;4.15;;;11.60;99.90;;;-144.05;62.28;56989.00;5015840;28;20044;-79
2024/03/14 09:36:26;;;;;;;5.05;4.18;;;16.20;99.90;;;-144.05;61.97;56972.03;5020004;28;20026;-81
2024/03/14 09:38:53;;;;;;;5.25;3.83;;;16.10;99.90;;;-144.05;61.37;56989.00;5017103;28;20033;-80
2024/03/14 09:41:19;;;;;;;7.88;4.18;;;;;;;-144.05;60.94;56984.78;5018388;28;20018;-80
2024/03/14 09:43:46;;;;;;;5.80;4.00;;;12.40;99.90;;;-144.05;59.94;56984.78;5017862;28;20080;-79
2024/03/14 09:46:20;;;;;;;6.38;4.03;;;15.40;99.90;;;-144.05;59.96;56993.25;5033428;28;20030;-79
2024/03/14 09:48:47;;;;;;;7.60;4.13;;;12.40;99.90;;;-144.05;58.77;56967.78;5018405;28;20040;-80
2024/03/14 09:51:17;;;;;;;4.82;4.10;;;16.50;99.90;;;-144.05;59.14;56978.41;5015505;28;20030;-79
2024/03/14 09:53:50;;;;;;;6.57;4.22;;;12.30;99.90;;;-144.05;58.70;56986.91;5016700;28;20518;-80
2024/03/14 09:56:16;;;;;;;5.88;3.75;;;13.00;99.90;;;-144.05;58.89;56967.78;5035816;28;20025;-80
2024/03/14 09:58:43;;;;;;;4.47;3.83;;;;;;;-144.05;58.94;56976.28;5025339;28;20116;-81
2024/03/14 10:01:12;;;;;;;5.57;3.83;;;12.50;99.90;;;-144.05;59.42;56976.28;5016578;28;20037;-79
2024/03/14 10:03:39;;;;;;;7.47;3.92;;;16.60;99.90;;;-144.05;59.46;56989.00;5014867;28;20498;-80
2024/03/14 10:06:18;;;;;;;5.72;4.18;;;13.00;99.90;;;-144.05;60.08;56976.28;5037952;28;20033;-81
2024/03/14 10:08:47;;;;;;;5.95;4.50;;;13.20;99.90;;;-144.05;58.75;56986.91;5018055;28;20021;-80
2024/03/14 10:11:13;;;;;;;5.32;3.40;;;13.10;99.90;;;-144.05;58.80;56982.66;5019796;28;20122;-79
2024/03/14 10:13:43;;;;;;;3.95;3.15;;;;;;;-144.05;58.39;56967.78;5021450;28;20050;-79
2024/03/14 10:16:09;;;;;;;5.50;4.20;;;16.50;99.90;;;-144.05;59.33;56989.00;5020938;28;20026;-81
2024/03/14 10:18:35;;;;;;;4.55;3.42;;;11.70;99.90;;;-144.05;60.75;56984.78;5020952;28;20538;-80
2024/03/14 10:21:05;;;;;;;5.68;3.70;;;16.10;99.90;;;-144.05;60.52;56967.78;5020715;28;20428;-79
2024/03/14 10:23:32;;;;;;;7.97;3.90;;;10.50;99.90;;;-144.05;61.26;56993.25;5017013;28;20030;-79
2024/03/14 10:25:59;;;;;;;4.60;3.65;;;14.60;99.90;;;-144.05;62.50;56980.53;5020014;28;20038;-80
2024/03/14 10:28:28;;;;;;;4.75;3.60;;;;;;;-144.05;61.46;57012.38;5018362;28;20030;-80
2024/03/14 10:31:05;;;;;;;5.43;3.45;;;;;;;-144.05;61.01;56963.53;5020782;28;20025;-80
2024/03/14 10:33:32;;;;;;;5.30;3.65;;;11.80;99.90;;;-144.05;61.13;56974.16;5021074;28;20062;-82
2024/03/14 10:36:01;;;;;;;5.93;3.88;;;15.40;99.90;;;-144.05;59.69;56976.28;5032925;28;20041;-78